Terminal Aerodrome Forecast
Issued by NWS

Home | Current Version | Previous Version | Text Only | Print | Product List | Glossary On
Versions: 1 2 3 4 5 6 7 8 9 10 11 12 13 14 15 16 17 18 19 20 21 22 23 24 25 26 27 28 29 30 31 32 33
239
FTUS44 KLZK 251739
TAFADF
TAF
KADF 251739Z 2518/2618 25009KT P6SM OVC035
     FM252000 26008G16KT P6SM SCT020 OVC040
      TEMPO 2520/2524 BKN020
     FM260000 27006KT P6SM BKN040=

USA.gov is the U.S. government's official web portal to all federal, state and local government web resources and services.